Time;durP1;ratioP1;P1;durP2;ratioP2;P2;SDS_P1;SDS_P2;PMS_P1;PMS_P2;Temp;Humidity;BMP_temperature;BMP_pressure;BME280_temperature;BME280_humidity;BME280_pressure;Samples;Min_cycle;Max_cycle;Signal;HPM_P1;HPM_P2
2020/12/31 00:00:48;;;;;;;2.83;1.02;;;20.80;44.40;;;;;;6317858;28;20108;-54
2020/12/31 00:03:49;;;;;;;2.50;0.95;;;20.80;45.10;;;;;;6317779;28;20051;-57
2020/12/31 00:06:49;;;;;;;1.73;1.10;;;20.80;44.40;;;;;;6286279;28;20572;-60
2020/12/31 00:09:50;;;;;;;1.85;1.23;;;20.80;44.30;;;;;;6276211;28;20024;-55
2020/12/31 00:12:50;;;;;;;1.30;0.73;;;20.80;44.30;;;;;;6275738;28;20033;-57
2020/12/31 00:15:51;;;;;;;1.98;1.25;;;20.80;44.50;;;;;;6286358;28;20016;-54
2020/12/31 00:18:51;;;;;;;1.00;0.90;;;20.80;44.40;;;;;;6300473;28;20016;-53
2020/12/31 00:21:52;;;;;;;1.73;1.00;;;20.80;44.30;;;;;;6300810;28;20435;-52
2020/12/31 00:24:52;;;;;;;1.40;0.90;;;20.80;44.50;;;;;;6300583;28;20027;-56
2020/12/31 00:27:53;;;;;;;1.60;0.90;;;20.80;44.30;;;;;;6300586;28;20032;-55
2020/12/31 00:30:54;;;;;;;1.65;1.05;;;20.80;44.40;;;;;;6299748;28;20037;-54
2020/12/31 00:33:54;;;;;;;1.30;0.90;;;20.70;44.30;;;;;;6300445;28;20020;-53
2020/12/31 00:36:55;;;;;;;2.00;0.80;;;20.70;44.20;;;;;;6284566;28;20029;-54
2020/12/31 00:39:55;;;;;;;1.67;0.90;;;20.70;44.30;;;;;;6275044;28;20029;-53
2020/12/31 00:42:56;;;;;;;1.60;0.80;;;20.70;44.40;;;;;;6282072;28;20054;-54
2020/12/31 00:45:56;;;;;;;1.30;0.65;;;20.70;44.40;;;;;;6300253;28;20024;-53
2020/12/31 00:48:57;;;;;;;1.88;0.80;;;20.70;44.30;;;;;;6318676;28;20413;-57
2020/12/31 00:51:57;;;;;;;1.85;0.90;;;20.70;44.40;;;;;;6300068;28;20500;-56
2020/12/31 00:54:58;;;;;;;1.65;0.80;;;20.70;44.60;;;;;;6299687;28;20020;-59
2020/12/31 00:57:58;;;;;;;1.15;0.82;;;20.70;44.60;;;;;;6313714;28;20016;-56
2020/12/31 01:00:59;;;;;;;1.27;0.80;;;20.70;44.40;;;;;;6316349;28;20046;-54
2020/12/31 01:04:00;;;;;;;1.42;0.82;;;20.70;44.50;;;;;;6316908;28;20127;-58
2020/12/31 01:07:00;;;;;;;2.17;1.05;;;20.70;44.60;;;;;;6303411;28;20037;-53
2020/12/31 01:10:04;;;;;;;1.27;0.73;;;20.70;44.60;;;;;;6292819;28;20016;-55
2020/12/31 01:13:04;;;;;;;1.00;0.70;;;20.70;44.50;;;;;;6299424;28;20409;-53
2020/12/31 01:16:05;;;;;;;1.45;0.80;;;20.70;44.40;;;;;;6299727;28;20032;-59
2020/12/31 01:19:05;;;;;;;0.98;0.80;;;20.70;44.40;;;;;;6299839;28;20023;-54
2020/12/31 01:22:06;;;;;;;1.20;0.93;;;20.70;44.40;;;;;;6299265;28;20129;-58
2020/12/31 01:25:07;;;;;;;1.40;0.80;;;20.70;44.40;;;;;;6299877;28;20020;-58
2020/12/31 01:28:07;;;;;;;0.98;0.70;;;20.60;44.30;;;;;;6299468;28;20031;-54
2020/12/31 01:31:08;;;;;;;2.03;0.90;;;20.60;44.30;;;;;;6276522;28;20074;-54
2020/12/31 01:34:08;;;;;;;0.90;0.70;;;20.60;44.40;;;;;;6274765;28;20060;-58
2020/12/31 01:37:09;;;;;;;2.03;0.90;;;20.60;44.40;;;;;;6282449;28;20020;-60
2020/12/31 01:40:10;;;;;;;1.45;0.65;;;20.60;44.40;;;;;;6299499;28;20017;-56
2020/12/31 01:43:10;;;;;;;1.15;0.80;;;20.60;44.40;;;;;;6299873;28;20370;-56
2020/12/31 01:46:11;;;;;;;0.98;0.70;;;20.60;44.40;;;;;;6299264;28;20024;-56
2020/12/31 01:49:16;;;;;;;1.00;0.63;;;20.60;44.40;;;;;;6299274;28;20081;-54
2020/12/31 01:52:17;;;;;;;1.73;1.00;;;20.60;44.40;;;;;;6300150;28;20035;-56
2020/12/31 01:55:18;;;;;;;1.30;0.60;;;20.60;44.40;;;;;;6304795;28;20028;-56
2020/12/31 01:58:18;;;;;;;1.02;0.70;;;20.60;44.40;;;;;;6304884;28;20024;-58
2020/12/31 02:01:21;;;;;;;0.85;0.70;;;20.60;44.40;;;;;;6322940;28;20514;-58
2020/12/31 02:04:22;;;;;;;0.77;0.55;;;20.60;45.20;;;;;;6304560;28;20034;-57
2020/12/31 02:07:23;;;;;;;1.00;0.70;;;20.60;44.50;;;;;;6303922;28;20028;-52
2020/12/31 02:10:23;;;;;;;1.23;0.80;;;20.60;44.70;;;;;;6303903;28;20036;-58
2020/12/31 02:13:24;;;;;;;1.40;0.70;;;20.60;44.60;;;;;;6303301;28;20024;-52
2020/12/31 02:16:27;;;;;;;0.70;0.60;;;20.60;44.50;;;;;;6304097;28;20522;-58
2020/12/31 02:19:28;;;;;;;1.00;0.60;;;20.60;44.60;;;;;;6284031;28;20032;-56
2020/12/31 02:22:29;;;;;;;0.90;0.80;;;20.60;44.50;;;;;;6280460;28;20029;-54
2020/12/31 02:25:29;;;;;;;0.98;0.80;;;20.60;44.40;;;;;;6303716;28;20575;-55
2020/12/31 02:28:30;;;;;;;0.73;0.60;;;20.60;44.50;;;;;;6301798;28;20038;-58
2020/12/31 02:31:31;;;;;;;0.55;0.52;;;20.50;44.40;;;;;;6278319;28;20032;-58
2020/12/31 02:34:31;;;;;;;0.88;0.50;;;20.50;44.40;;;;;;6278201;28;20020;-53
2020/12/31 02:37:32;;;;;;;1.00;0.68;;;20.50;44.50;;;;;;6292763;28;20024;-55
2020/12/31 02:40:32;;;;;;;0.85;0.60;;;20.50;44.50;;;;;;6302876;28;20074;-57
2020/12/31 02:43:34;;;;;;;0.82;0.70;;;20.50;44.40;;;;;;6302855;28;20119;-55
2020/12/31 02:46:35;;;;;;;1.38;0.70;;;20.50;44.50;;;;;;6303032;28;20056;-58
2020/12/31 02:49:35;;;;;;;1.20;0.73;;;20.50;44.50;;;;;;6302551;28;20028;-54
2020/12/31 02:52:36;;;;;;;0.90;0.63;;;20.50;44.50;;;;;;6321016;28;20267;-55
2020/12/31 02:55:37;;;;;;;0.95;0.60;;;20.50;44.60;;;;;;6278310;28;20036;-54
2020/12/31 02:58:38;;;;;;;0.70;0.50;;;20.50;44.50;;;;;;6278013;28;20540;-58
2020/12/31 03:01:39;;;;;;;0.77;0.60;;;20.50;44.50;;;;;;6277311;28;20124;-56
2020/12/31 03:04:39;;;;;;;0.55;0.45;;;20.50;44.50;;;;;;6291362;28;20389;-56
2020/12/31 03:07:40;;;;;;;1.00;0.68;;;20.50;44.50;;;;;;6302585;28;20062;-57
2020/12/31 03:10:40;;;;;;;0.60;0.50;;;20.50;44.60;;;;;;6301991;28;20039;-50
2020/12/31 03:13:41;;;;;;;1.13;0.60;;;20.50;44.50;;;;;;6297207;28;20111;-53
2020/12/31 03:16:42;;;;;;;0.80;0.60;;;20.50;44.60;;;;;;6277511;28;20431;-55
2020/12/31 03:19:42;;;;;;;0.95;0.60;;;20.50;44.60;;;;;;6289936;28;20382;-55
2020/12/31 03:22:43;;;;;;;0.52;0.52;;;20.50;44.50;;;;;;6319983;28;20070;-52
2020/12/31 03:25:44;;;;;;;0.57;0.50;;;20.50;44.60;;;;;;6281609;28;20166;-52
2020/12/31 03:28:45;;;;;;;0.80;0.60;;;20.50;44.50;;;;;;6279642;28;20126;-52
2020/12/31 03:31:45;;;;;;;0.63;0.60;;;20.40;44.40;;;;;;6301644;28;20088;-56
2020/12/31 03:34:46;;;;;;;0.98;0.60;;;20.40;44.60;;;;;;6290135;28;20025;-55
2020/12/31 03:37:46;;;;;;;0.60;0.60;;;20.40;44.50;;;;;;6277096;28;20458;-51
2020/12/31 03:40:47;;;;;;;0.68;0.60;;;20.40;44.50;;;;;;6276384;28;20555;-54
2020/12/31 03:43:48;;;;;;;0.73;0.60;;;20.40;44.60;;;;;;6276927;28;20033;-51
2020/12/31 03:46:48;;;;;;;0.45;0.45;;;20.40;44.60;;;;;;6276662;28;20028;-56
2020/12/31 03:49:50;;;;;;;0.45;0.40;;;20.40;44.60;;;;;;6275777;28;20059;-54
2020/12/31 03:52:50;;;;;;;0.68;0.60;;;20.40;44.60;;;;;;6276425;28;20503;-53
2020/12/31 03:55:51;;;;;;;0.90;0.32;;;20.40;44.70;;;;;;6293174;28;20024;-54
2020/12/31 03:58:51;;;;;;;0.60;0.52;;;20.40;44.70;;;;;;6301620;28;20447;-55
2020/12/31 04:01:52;;;;;;;0.68;0.50;;;20.40;44.60;;;;;;6275574;28;20032;-50
2020/12/31 04:04:52;;;;;;;0.40;0.40;;;20.40;44.60;;;;;;6287901;28;20028;-57
2020/12/31 04:07:53;;;;;;;0.50;0.47;;;20.40;44.60;;;;;;6301446;28;20031;-57
2020/12/31 04:10:54;;;;;;;0.43;0.43;;;20.40;44.70;;;;;;6300003;28;20024;-54
2020/12/31 04:13:54;;;;;;;0.60;0.50;;;20.40;44.70;;;;;;6301038;28;20016;-54
2020/12/31 04:16:55;;;;;;;1.42;0.60;;;20.40;44.60;;;;;;6312912;28;20020;-53
2020/12/31 04:19:55;;;;;;;0.55;0.55;;;20.40;44.60;;;;;;6314295;28;20016;-53
2020/12/31 04:22:56;;;;;;;0.60;0.52;;;20.40;44.60;;;;;;6275644;28;20123;-51
2020/12/31 04:25:56;;;;;;;1.33;0.60;;;20.40;44.60;;;;;;6275741;28;20066;-54
2020/12/31 04:28:57;;;;;;;0.70;0.50;;;20.40;44.60;;;;;;6280070;28;20043;-50
2020/12/31 04:31:57;;;;;;;0.95;0.52;;;20.40;44.60;;;;;;6300127;28;20028;-55
2020/12/31 04:34:58;;;;;;;0.57;0.57;;;20.40;44.70;;;;;;6298868;28;20032;-55
2020/12/31 04:37:58;;;;;;;0.50;0.40;;;20.40;44.70;;;;;;6275771;28;20505;-53
2020/12/31 04:41:03;;;;;;;0.90;0.70;;;20.40;44.70;;;;;;6275340;28;20032;-53
2020/12/31 04:44:04;;;;;;;0.70;0.50;;;20.40;44.70;;;;;;6275773;28;20173;-55
2020/12/31 04:47:05;;;;;;;0.88;0.50;;;20.30;44.60;;;;;;6275493;28;20477;-57
2020/12/31 04:50:06;;;;;;;0.68;0.50;;;20.30;44.60;;;;;;6274588;28;20024;-51
2020/12/31 04:53:08;;;;;;;1.15;0.55;;;20.30;44.70;;;;;;6275252;28;20032;-55
2020/12/31 04:56:12;;;;;;;0.40;0.40;;;20.30;44.60;;;;;;6283785;28;20027;-56
2020/12/31 04:59:12;;;;;;;0.55;0.50;;;20.30;44.70;;;;;;6299979;28;20350;-55
2020/12/31 05:02:13;;;;;;;0.55;0.50;;;20.30;44.80;;;;;;6299004;28;20055;-57
2020/12/31 05:05:13;;;;;;;0.55;0.50;;;20.30;44.80;;;;;;6300060;28;20055;-57
2020/12/31 05:08:17;;;;;;;0.57;0.50;;;20.30;44.70;;;;;;6299743;28;20043;-55
2020/12/31 05:11:18;;;;;;;0.88;0.60;;;20.30;44.60;;;;;;6299388;28;20024;-53
2020/12/31 05:14:32;;;;;;;0.40;0.40;;;20.30;44.60;;;;;;6300225;28;20031;-53
2020/12/31 05:17:33;;;;;;;1.33;0.60;;;20.30;44.60;;;;;;6292675;28;20343;-55
2020/12/31 05:20:34;;;;;;;0.82;0.50;;;20.40;44.70;;;;;;6317574;28;20465;-56
2020/12/31 05:23:35;;;;;;;0.55;0.50;;;20.40;44.70;;;;;;6274691;28;20082;-53
2020/12/31 05:26:35;;;;;;;0.52;0.43;;;20.40;44.60;;;;;;6275293;28;20048;-51
2020/12/31 05:29:36;;;;;;;0.43;0.40;;;20.40;44.60;;;;;;6289376;28;20397;-55
2020/12/31 05:32:38;;;;;;;0.75;0.43;;;20.50;44.60;;;;;;6322503;28;20384;-54
2020/12/31 05:35:39;;;;;;;0.47;0.40;;;20.50;44.70;;;;;;6322442;28;20360;-52
2020/12/31 05:38:39;;;;;;;0.30;0.30;;;20.50;44.70;;;;;;6304795;28;20024;-53
2020/12/31 05:41:40;;;;;;;0.50;0.40;;;20.50;44.80;;;;;;6304087;28;20024;-56
2020/12/31 05:45:02;;;;;;;0.75;0.40;;;20.50;44.80;;;;;;6304871;28;20460;-53
2020/12/31 05:48:02;;;;;;;0.35;0.35;;;20.50;44.80;;;;;;6304065;28;20244;-53
2020/12/31 05:51:29;;;;;;;0.30;0.30;;;20.50;44.80;;;;;;6303931;28;20024;-55
2020/12/31 05:54:38;;;;;;;0.60;0.40;;;20.50;44.80;;;;;;6278797;28;20340;-54
2020/12/31 05:57:56;;;;;;;0.82;0.38;;;20.50;44.80;;;;;;6279391;28;20027;-54
2020/12/31 06:01:01;;;;;;;0.73;0.50;;;20.50;44.90;;;;;;6278738;28;20100;-54
2020/12/31 06:04:19;;;;;;;;;;;20.50;44.90;;;;;;6279971;28;20089;-50
2020/12/31 06:07:29;;;;;;;0.40;0.40;;;20.50;44.80;;;;;;6287828;28;19911;-54
2020/12/31 06:10:31;;;;;;;0.40;0.40;;;20.60;44.60;;;;;;6303633;28;20024;-54
2020/12/31 06:13:37;;;;;;;1.02;0.30;;;20.70;44.60;;;;;;6303012;28;20385;-54
2020/12/31 06:16:38;;;;;;;0.28;0.28;;;20.80;44.40;;;;;;6301959;28;20079;-57
2020/12/31 06:19:39;;;;;;;0.40;0.40;;;20.90;44.30;;;;;;6278419;28;20447;-53
2020/12/31 06:23:01;;;;;;;0.55;0.50;;;21.00;44.30;;;;;;6296698;28;20028;-54
2020/12/31 06:26:10;;;;;;;0.52;0.40;;;21.00;44.20;;;;;;6278207;28;20442;-54
2020/12/31 06:29:11;;;;;;;0.30;0.30;;;21.10;44.10;;;;;;6285111;28;20400;-52
2020/12/31 06:32:35;;;;;;;0.45;0.38;;;21.10;44.10;;;;;;6302676;28;20114;-53
2020/12/31 06:35:39;;;;;;;0.30;0.30;;;21.20;44.20;;;;;;6302341;28;20089;-54
2020/12/31 06:38:47;;;;;;;0.50;0.50;;;21.20;44.20;;;;;;6302897;28;20114;-51
2020/12/31 06:41:53;;;;;;;0.82;0.57;;;21.20;44.30;;;;;;6303108;28;20054;-57
2020/12/31 06:44:54;;;;;;;0.43;0.40;;;21.20;44.40;;;;;;6302842;28;20025;-55
2020/12/31 06:47:54;;;;;;;0.60;0.40;;;21.20;44.40;;;;;;6297051;28;20048;-53
2020/12/31 06:51:11;;;;;;;0.77;0.40;;;21.30;44.60;;;;;;6277333;28;20111;-52
2020/12/31 06:54:12;;;;;;;1.10;0.50;;;21.30;44.60;;;;;;6278356;28;20486;-55
2020/12/31 06:57:32;;;;;;;0.75;0.55;;;21.30;44.60;;;;;;6277543;28;20021;-56
2020/12/31 07:00:33;;;;;;;0.30;0.30;;;21.30;44.60;;;;;;6294082;28;20023;-54
2020/12/31 07:03:39;;;;;;;0.40;0.40;;;21.30;44.60;;;;;;6304231;28;20024;-51
2020/12/31 07:06:40;;;;;;;0.50;0.32;;;21.30;44.60;;;;;;6303546;28;20020;-51
2020/12/31 07:09:40;;;;;;;3.22;0.50;;;21.30;44.80;;;;;;6302969;28;20397;-55
2020/12/31 07:12:46;;;;;;;1.48;0.57;;;21.30;44.80;;;;;;6302132;28;20111;-55
2020/12/31 07:15:47;;;;;;;4.57;0.57;;;21.30;44.90;;;;;;6279041;28;20052;-53
2020/12/31 07:18:52;;;;;;;6.28;0.50;;;21.30;44.70;;;;;;6287672;28;20020;-50
2020/12/31 07:21:52;;;;;;;;;;;21.30;44.70;;;;;;6303674;28;20059;-51
2020/12/31 07:24:57;;;;;;;2.53;0.60;;;21.30;44.70;;;;;;6303251;28;19908;-55
2020/12/31 07:28:02;;;;;;;4.07;0.77;;;21.30;45.00;;;;;;6302660;28;20512;-54
2020/12/31 07:31:02;;;;;;;2.92;0.50;;;21.30;44.90;;;;;;6300053;28;20691;-52
2020/12/31 07:34:26;;;;;;;0.73;0.40;;;21.30;44.90;;;;;;6302973;28;20028;-54
2020/12/31 07:37:26;;;;;;;1.35;0.50;;;21.30;44.80;;;;;;6302898;28;20105;-52
2020/12/31 07:40:34;;;;;;;3.10;0.60;;;21.30;44.90;;;;;;6290587;28;20080;-53
2020/12/31 07:43:35;;;;;;;2.35;0.57;;;21.30;45.00;;;;;;6298687;28;20021;-54
2020/12/31 07:46:37;;;;;;;0.77;0.50;;;21.30;45.00;;;;;;6278811;28;20028;-55
2020/12/31 07:49:49;;;;;;;1.45;0.60;;;21.30;45.00;;;;;;6290176;28;20499;-59
2020/12/31 07:52:50;;;;;;;0.22;0.20;;;21.30;44.60;;;;;;6303494;28;20676;-62
2020/12/31 07:55:52;;;;;;;4.60;0.40;;;21.30;44.70;;;;;;6302890;28;20515;-54
2020/12/31 07:58:56;;;;;;;0.35;0.32;;;21.30;44.80;;;;;;6298082;28;20059;-56
2020/12/31 08:02:03;;;;;;;1.27;0.50;;;21.30;44.80;;;;;;6277586;28;20029;-56
2020/12/31 08:05:12;;;;;;;0.30;0.30;;;21.30;44.90;;;;;;6277368;28;20024;-54
2020/12/31 08:08:12;;;;;;;3.50;0.50;;;21.30;44.90;;;;;;6277286;28;20131;-55
2020/12/31 08:11:13;;;;;;;1.85;0.52;;;21.30;44.70;;;;;;6299554;28;20020;-53
2020/12/31 08:14:14;;;;;;;0.50;0.50;;;21.30;44.70;;;;;;6302212;28;20044;-55
2020/12/31 08:17:16;;;;;;;0.52;0.40;;;21.30;44.70;;;;;;6297656;28;20633;-56
2020/12/31 08:20:22;;;;;;;7.72;0.95;;;21.30;44.60;;;;;;6292421;28;20048;-52
2020/12/31 08:23:26;;;;;;;5.45;1.63;;;21.30;44.30;;;;;;6299931;28;20254;-63
2020/12/31 08:26:28;;;;;;;4.30;0.60;;;21.40;43.70;;;;;;6329814;28;20024;-55
2020/12/31 08:29:32;;;;;;;10.27;0.95;;;21.50;44.50;;;;;;6308256;28;20039;-51
2020/12/31 08:32:50;;;;;;;2.53;0.80;;;21.60;44.30;;;;;;6298495;28;20031;-57
2020/12/31 08:35:52;;;;;;;7.18;0.70;;;21.60;44.20;;;;;;6297527;28;20021;-51
2020/12/31 08:38:54;;;;;;;2.22;0.70;;;21.60;44.60;;;;;;6296162;28;20017;-49
2020/12/31 08:42:00;;;;;;;3.22;0.50;;;21.60;43.90;;;;;;6297752;28;20028;-52
2020/12/31 08:45:00;;;;;;;1.65;0.40;;;21.70;44.50;;;;;;6286602;28;20024;-50
2020/12/31 08:48:17;;;;;;;5.03;0.70;;;21.70;43.80;;;;;;6278674;28;20115;-54
2020/12/31 08:51:18;;;;;;;2.13;0.80;;;21.70;43.80;;;;;;6315700;28;20035;-52
2020/12/31 08:54:20;;;;;;;0.85;0.45;;;21.70;43.90;;;;;;6297228;28;20017;-51
2020/12/31 08:57:20;;;;;;;1.10;0.40;;;21.70;43.90;;;;;;6298495;28;20107;-49
2020/12/31 09:00:35;;;;;;;2.00;0.60;;;21.70;44.00;;;;;;6273955;28;20085;-49
2020/12/31 09:03:36;;;;;;;0.90;0.70;;;21.80;43.90;;;;;;6279951;28;20055;-55
2020/12/31 09:06:44;;;;;;;0.82;0.45;;;21.80;44.10;;;;;;6283504;28;20388;-52
2020/12/31 09:09:45;;;;;;;1.55;0.65;;;21.80;44.00;;;;;;6283825;28;20493;-53
2020/12/31 09:12:46;;;;;;;1.33;0.43;;;21.80;44.10;;;;;;6282326;28;20028;-55
2020/12/31 09:15:47;;;;;;;1.55;0.55;;;21.80;44.10;;;;;;6293988;28;20031;-50
2020/12/31 09:18:58;;;;;;;0.57;0.45;;;21.80;44.10;;;;;;6306274;28;20619;-53
2020/12/31 09:21:58;;;;;;;1.50;0.40;;;21.80;44.10;;;;;;6297820;28;20032;-50
2020/12/31 09:25:10;;;;;;;1.15;0.30;;;21.80;44.90;;;;;;6280322;28;20028;-56
2020/12/31 09:28:10;;;;;;;1.50;0.60;;;21.80;44.10;;;;;;6281873;28;20052;-50
2020/12/31 09:31:17;;;;;;;1.15;0.60;;;21.80;44.10;;;;;;6290428;28;20059;-55
2020/12/31 09:34:18;;;;;;;0.77;0.60;;;21.80;44.20;;;;;;6288031;28;20023;-50
2020/12/31 09:37:19;;;;;;;0.30;0.30;;;21.80;44.10;;;;;;6290741;28;20110;-51
2020/12/31 09:40:19;;;;;;;3.72;0.60;;;21.80;44.10;;;;;;6283960;28;20024;-50
2020/12/31 09:43:20;;;;;;;0.80;0.50;;;21.80;44.20;;;;;;6289587;28;20027;-55
2020/12/31 09:46:21;;;;;;;1.25;0.50;;;21.80;44.10;;;;;;6297475;28;20103;-51
2020/12/31 09:49:22;;;;;;;3.92;0.47;;;21.80;44.10;;;;;;6295249;28;20053;-50
2020/12/31 09:52:22;;;;;;;7.30;0.75;;;21.80;44.70;;;;;;6289251;28;20020;-50
2020/12/31 09:55:23;;;;;;;10.02;0.68;;;21.70;44.90;;;;;;6297330;28;20031;-52
2020/12/31 09:58:24;;;;;;;9.90;0.77;;;21.70;44.60;;;;;;6275115;28;20023;-54
2020/12/31 10:01:26;;;;;;;5.28;0.63;;;21.70;45.10;;;;;;6287539;28;20024;-52
2020/12/31 10:04:27;;;;;;;3.47;0.60;;;21.80;44.60;;;;;;6292641;28;20044;-51
2020/12/31 10:07:27;;;;;;;2.15;0.70;;;21.80;44.00;;;;;;6290149;28;21248;-54
2020/12/31 10:10:28;;;;;;;7.97;0.90;;;21.80;44.00;;;;;;6295139;28;20024;-55
2020/12/31 10:13:28;;;;;;;2.72;0.60;;;21.80;44.10;;;;;;6293640;28;20086;-52
2020/12/31 10:16:29;;;;;;;1.95;0.80;;;21.80;44.10;;;;;;6304721;28;20028;-46
2020/12/31 10:19:29;;;;;;;2.08;0.70;;;21.80;43.90;;;;;;6310683;28;20016;-49
2020/12/31 10:22:30;;;;;;;4.97;0.90;;;21.80;44.00;;;;;;6319879;28;20027;-47
2020/12/31 10:25:30;;;;;;;1.02;0.52;;;21.90;44.40;;;;;;6300423;28;20546;-48
2020/12/31 10:28:31;;;;;;;1.95;0.70;;;21.90;44.20;;;;;;6317360;28;20065;-48
2020/12/31 10:31:31;;;;;;;1.55;0.50;;;21.80;44.30;;;;;;6319875;28;20058;-46
2020/12/31 10:34:32;;;;;;;1.50;0.50;;;21.80;44.10;;;;;;6302682;28;20549;-47
2020/12/31 10:37:32;;;;;;;1.85;0.60;;;21.80;44.20;;;;;;6306287;28;20020;-46
2020/12/31 10:40:33;;;;;;;1.08;0.50;;;21.80;44.10;;;;;;6320178;28;20039;-50
2020/12/31 10:43:34;;;;;;;1.38;0.60;;;21.90;44.00;;;;;;6306266;28;20019;-49
2020/12/31 10:46:34;;;;;;;0.70;0.40;;;21.90;44.00;;;;;;6287345;28;20638;-47
2020/12/31 10:49:35;;;;;;;0.60;0.60;;;21.90;44.00;;;;;;6278313;28;20508;-49
2020/12/31 10:52:35;;;;;;;2.30;0.60;;;21.90;44.00;;;;;;6288215;28;20544;-49
2020/12/31 10:55:36;;;;;;;1.45;0.50;;;21.90;44.10;;;;;;6296208;28;20533;-47
2020/12/31 10:58:37;;;;;;;0.57;0.50;;;22.00;44.30;;;;;;6300166;28;20029;-48
2020/12/31 11:01:38;;;;;;;0.70;0.50;;;22.00;44.10;;;;;;6301416;28;20020;-47
2020/12/31 11:04:38;;;;;;;1.92;0.73;;;22.00;44.10;;;;;;6303676;28;20062;-62
2020/12/31 11:07:39;;;;;;;4.55;0.68;;;22.00;44.30;;;;;;6289601;28;20095;-61
2020/12/31 11:10:39;;;;;;;3.83;0.50;;;22.00;44.10;;;;;;6294983;28;20024;-52
2020/12/31 11:13:40;;;;;;;1.77;0.52;;;22.00;44.00;;;;;;6295629;28;20035;-49
2020/12/31 11:16:46;;;;;;;3.30;0.73;;;22.00;43.90;;;;;;6294314;28;20055;-47
2020/12/31 11:19:46;;;;;;;1.35;0.60;;;22.00;44.00;;;;;;6313968;28;20356;-47
2020/12/31 11:22:49;;;;;;;2.83;0.65;;;22.00;43.90;;;;;;6290097;28;20029;-49
2020/12/31 11:25:49;;;;;;;1.80;0.75;;;22.00;43.70;;;;;;6275680;28;20031;-51
2020/12/31 11:28:50;;;;;;;7.25;0.95;;;22.00;44.30;;;;;;6278981;28;20396;-57
2020/12/31 11:31:51;;;;;;;1.20;0.70;;;22.10;43.60;;;;;;6318174;28;20164;-58
2020/12/31 11:34:51;;;;;;;5.65;0.90;;;22.20;43.70;;;;;;6285132;28;20028;-63
2020/12/31 11:37:52;;;;;;;2.95;0.80;;;22.10;43.70;;;;;;6296153;28;20020;-61
2020/12/31 11:40:53;;;;;;;8.98;1.05;;;22.10;43.80;;;;;;6300383;28;20028;-58
2020/12/31 11:43:53;;;;;;;4.10;1.65;;;22.00;42.90;;;;;;6285065;28;20485;-53
2020/12/31 11:46:58;;;;;;;4.97;1.40;;;21.70;40.60;;;;;;6300664;28;20103;-56
2020/12/31 11:49:59;;;;;;;;;;;21.70;39.80;;;;;;6276221;28;20025;-58
2020/12/31 11:52:59;;;;;;;5.22;1.20;;;21.80;40.60;;;;;;6296442;28;19915;-54
2020/12/31 11:56:03;;;;;;;5.07;1.05;;;21.80;41.20;;;;;;6303120;28;20028;-55
2020/12/31 11:59:04;;;;;;;6.10;1.33;;;21.80;41.10;;;;;;6283288;28;20537;-52
2020/12/31 12:02:04;;;;;;;3.97;0.90;;;21.80;41.20;;;;;;6295470;28;20036;-50
2020/12/31 12:05:06;;;;;;;6.35;0.90;;;21.80;41.50;;;;;;6285594;28;20090;-54
2020/12/31 12:08:07;;;;;;;6.13;0.90;;;21.80;41.50;;;;;;6299402;28;20031;-55
2020/12/31 12:11:07;;;;;;;7.05;1.00;;;21.90;41.90;;;;;;6302241;28;20616;-54
2020/12/31 12:14:08;;;;;;;2.30;0.77;;;21.90;41.80;;;;;;6301211;28;20043;-55
2020/12/31 12:17:09;;;;;;;2.75;1.17;;;21.80;41.80;;;;;;6293739;28;20389;-50
2020/12/31 12:20:11;;;;;;;2.90;0.90;;;21.80;42.10;;;;;;6291310;28;20044;-57
2020/12/31 12:23:12;;;;;;;2.45;0.88;;;21.90;42.40;;;;;;6295627;28;20028;-50
2020/12/31 12:26:12;;;;;;;3.08;0.90;;;21.90;42.30;;;;;;6300103;28;20048;-54
2020/12/31 12:29:13;;;;;;;7.55;0.82;;;21.90;42.40;;;;;;6299494;28;20079;-56
2020/12/31 12:32:13;;;;;;;9.00;0.90;;;21.90;42.20;;;;;;6294535;28;20189;-56
2020/12/31 12:35:14;;;;;;;6.88;0.77;;;22.00;42.00;;;;;;6299512;28;20016;-55
2020/12/31 12:38:15;;;;;;;8.30;1.05;;;22.00;42.40;;;;;;6299771;28;20447;-51
2020/12/31 12:41:15;;;;;;;15.90;1.00;;;21.90;42.40;;;;;;6300235;28;20032;-53
2020/12/31 12:44:16;;;;;;;10.88;0.73;;;22.00;42.90;;;;;;6300246;28;20052;-61
2020/12/31 12:47:16;;;;;;;6.45;0.82;;;22.10;42.80;;;;;;6300091;28;20115;-53
2020/12/31 12:50:17;;;;;;;6.68;1.20;;;22.20;42.20;;;;;;6289081;28;20115;-53
2020/12/31 12:53:18;;;;;;;14.75;0.82;;;22.00;42.60;;;;;;6299644;28;20028;-52
2020/12/31 12:56:18;;;;;;;10.73;1.05;;;22.00;42.90;;;;;;6299459;28;20079;-51
2020/12/31 12:59:19;;;;;;;9.73;0.90;;;22.10;43.40;;;;;;6289729;28;20396;-49
2020/12/31 13:02:20;;;;;;;4.15;0.80;;;22.10;42.80;;;;;;6292025;28;20397;-51
2020/12/31 13:05:20;;;;;;;3.13;0.70;;;22.00;43.10;;;;;;6288799;28;20099;-52
2020/12/31 13:08:21;;;;;;;11.38;0.80;;;22.00;43.50;;;;;;6292487;28;20482;-50
2020/12/31 13:11:22;;;;;;;12.93;1.08;;;22.10;43.40;;;;;;6283196;28;20028;-48
2020/12/31 13:14:23;;;;;;;9.02;1.08;;;22.10;43.80;;;;;;6300931;28;20515;-49
2020/12/31 13:17:23;;;;;;;5.18;0.82;;;22.10;43.90;;;;;;6274348;28;20504;-59
2020/12/31 13:20:24;;;;;;;4.25;0.60;;;22.10;44.70;;;;;;6290193;28;20028;-56
2020/12/31 13:23:25;;;;;;;1.63;0.90;;;22.20;43.90;;;;;;6296829;28;20027;-54
2020/12/31 13:26:25;;;;;;;7.18;0.90;;;22.20;44.30;;;;;;6299043;28;20024;-50
2020/12/31 13:29:26;;;;;;;6.38;0.80;;;22.20;43.50;;;;;;6298308;28;20040;-54
2020/12/31 13:32:26;;;;;;;4.97;0.77;;;22.10;43.70;;;;;;6299355;28;20032;-65
2020/12/31 13:35:27;;;;;;;6.45;0.80;;;22.10;43.90;;;;;;6293729;28;20017;-55
2020/12/31 13:38:28;;;;;;;3.53;1.33;;;22.10;43.90;;;;;;6294409;28;20021;-50
2020/12/31 13:41:28;;;;;;;4.03;0.98;;;22.10;43.80;;;;;;6298379;28;20546;-55
2020/12/31 13:44:29;;;;;;;10.55;0.90;;;22.10;44.20;;;;;;6287832;28;20115;-53
2020/12/31 13:47:29;;;;;;;11.55;1.83;;;22.10;44.30;;;;;;6306957;28;20031;-56
2020/12/31 13:50:30;;;;;;;7.72;0.90;;;22.30;44.60;;;;;;6301107;28;20077;-59
2020/12/31 13:53:31;;;;;;;7.05;0.80;;;22.30;43.90;;;;;;6303981;28;20020;-57
2020/12/31 13:56:31;;;;;;;4.28;0.60;;;22.40;43.80;;;;;;6303160;28;20024;-55
2020/12/31 13:59:32;;;;;;;3.13;0.80;;;22.40;43.60;;;;;;6301611;28;20115;-55
2020/12/31 14:02:32;;;;;;;2.20;0.60;;;22.40;43.60;;;;;;6301594;28;20038;-58
2020/12/31 14:05:33;;;;;;;5.60;0.77;;;22.50;43.40;;;;;;6286135;28;20028;-56
2020/12/31 14:08:34;;;;;;;2.45;0.60;;;22.50;43.50;;;;;;6299277;28;20026;-57
2020/12/31 14:11:34;;;;;;;3.55;0.68;;;22.50;43.40;;;;;;6301920;28;20024;-58
2020/12/31 14:14:35;;;;;;;4.72;0.50;;;22.50;43.30;;;;;;6301557;28;20016;-56
2020/12/31 14:17:36;;;;;;;3.15;0.63;;;22.50;43.40;;;;;;6277932;28;20024;-56
2020/12/31 14:20:36;;;;;;;2.70;0.45;;;22.60;43.40;;;;;;6278423;28;20021;-54
2020/12/31 14:23:37;;;;;;;4.80;0.52;;;22.60;43.20;;;;;;6288240;28;21471;-53
2020/12/31 14:26:38;;;;;;;1.40;0.63;;;22.60;43.20;;;;;;6288183;28;20539;-56
2020/12/31 14:29:38;;;;;;;1.50;0.60;;;22.60;43.00;;;;;;6277431;28;20024;-56
2020/12/31 14:32:39;;;;;;;0.65;0.50;;;22.60;43.00;;;;;;6277597;28;20089;-52
2020/12/31 14:35:40;;;;;;;1.20;0.55;;;22.60;43.00;;;;;;6277266;28;20103;-59
2020/12/31 14:38:40;;;;;;;3.72;0.50;;;22.60;43.20;;;;;;6294066;28;20476;-53
2020/12/31 14:41:44;;;;;;;11.73;0.90;;;22.60;43.30;;;;;;6302035;28;20480;-55
2020/12/31 14:44:44;;;;;;;0.57;0.50;;;22.40;43.00;;;;;;6300750;28;20131;-56
2020/12/31 14:47:45;;;;;;;4.20;1.08;;;22.30;42.60;;;;;;6277984;28;20028;-52
2020/12/31 14:50:46;;;;;;;3.95;1.10;;;22.20;43.10;;;;;;6290584;28;20052;-55
2020/12/31 14:53:47;;;;;;;6.20;1.00;;;22.10;42.30;;;;;;6276786;28;20040;-52
2020/12/31 14:56:47;;;;;;;2.88;1.00;;;22.10;41.90;;;;;;6290912;28;20050;-51
2020/12/31 14:59:48;;;;;;;3.10;0.70;;;22.10;41.80;;;;;;6301942;28;20524;-52
2020/12/31 15:02:48;;;;;;;11.30;1.58;;;22.10;41.80;;;;;;6298678;28;20024;-55
2020/12/31 15:05:49;;;;;;;1.63;0.60;;;22.10;41.90;;;;;;6300911;28;20650;-51
2020/12/31 15:08:50;;;;;;;5.97;0.75;;;22.20;43.10;;;;;;6302451;28;20024;-51
2020/12/31 15:11:51;;;;;;;3.03;0.85;;;22.20;42.10;;;;;;6301229;28;20021;-53
2020/12/31 15:14:52;;;;;;;1.30;0.60;;;22.20;42.30;;;;;;6301110;28;20063;-51
2020/12/31 15:17:52;;;;;;;6.10;0.70;;;22.10;42.40;;;;;;6279189;28;20672;-49
2020/12/31 15:20:53;;;;;;;3.60;0.60;;;22.10;42.40;;;;;;6282930;28;20055;-54
2020/12/31 15:23:53;;;;;;;1.95;0.60;;;22.10;42.70;;;;;;6302062;28;20028;-53
2020/12/31 15:26:54;;;;;;;1.92;0.68;;;22.10;42.50;;;;;;6294750;28;20034;-51
2020/12/31 15:29:54;;;;;;;1.85;0.52;;;22.10;42.70;;;;;;6302158;28;20024;-49
2020/12/31 15:32:55;;;;;;;1.08;0.65;;;22.10;42.70;;;;;;6301133;28;20050;-51
2020/12/31 15:35:55;;;;;;;1.27;0.77;;;22.10;42.80;;;;;;6297601;28;20017;-53
2020/12/31 15:38:56;;;;;;;5.05;0.70;;;22.10;42.90;;;;;;6288718;28;20062;-54
2020/12/31 15:41:56;;;;;;;1.42;0.43;;;22.10;42.90;;;;;;6297712;28;20059;-51
2020/12/31 15:44:57;;;;;;;1.95;0.70;;;22.10;42.90;;;;;;6275914;28;20401;-53
2020/12/31 15:47:58;;;;;;;2.45;0.63;;;22.10;43.00;;;;;;6304571;28;20020;-56